Terminal Aerodrome Forecast
Issued by NWS Portland, OR

Home | Current Version | Previous Version | Text Only | Print | Product List | Glossary On
Versions: 1 2 3 4 5 6 7 8 9 10 11 12 13 14 15 16 17 18 19 20 21 22 23 24 25 26 27 28 29 30
000
FTUS46 KPQR 181740
TAFAST
TAF
KAST 181740Z 1818/1918 10008KT P6SM SCT010 BKN025 BKN040
      TEMPO 1819/1823 5SM -RA BR
     FM182300 18015G25KT 6SM -RA BR SCT015 BKN025 OVC040
     FM190500 21009KT P6SM -RA OVC040=

USA.gov is the U.S. government's official web portal to all federal, state and local government web resources and services.